Main page
METAR-TAF:

METAR-TAF

Airports :

Gibraltar International Airport

Gibraltar, Gibraltar

latitude: 36-09N, longitude: 005-21W, elevation: 5 m

Current weather observation

The report was made 30 minutes ago, at 23:50 UTC
Wind 11 kt from the Southwest
Temperature 24°C
Humidity 57%
Pressure 1015 hPa
Visibility 10 km or more

METAR: LXGB 302350Z AUTO 23011KT 9999 NCD 24/15 Q1015

Time: 02:20 (00:20 UTC)

Forecast

The report was made 5 hours and 59 minutes ago, at 18:21 UTC
Forecast valid from 30 at 18 UTC to 30 at 23 UTC
Wind 15 kt from the West with gusts up to 25 kt
Visibility 10 km or more
no clouds below 1500 m and no cumulonimbus
Becoming
from 30 at 19 UTC to 30 at 21 UTC
Wind 10 kt from the West

TAF: LXGB 301821Z 3018/3023 27015G25KT CAVOK BECMG 3019/3021 27010KT

Weather observations and forecasts of more than 4000 airports (METAR and TAF reports).

The available stations are represented by yellow and red dots on the map.

Hover mouse over dot to see the name of the station.

Then click to see weather observations and forecasts.

To change the map : click on the green buttons with a black cross to zoom in, on the green button with a dash to zoom out, or on the green arrows for adjacent maps.


METAR-TAF: